createdAt,value
2023-01-19T00:02:05.959Z,12.61
2023-01-19T00:05:11.657Z,12.82
2023-01-19T00:08:18.788Z,12.93
2023-01-19T00:11:24.511Z,12.83
2023-01-19T00:14:28.434Z,12.71
2023-01-19T00:17:32.736Z,12.67
2023-01-19T00:20:36.540Z,12.92
2023-01-19T00:23:42.090Z,13.04
2023-01-19T00:26:47.859Z,13.17
2023-01-19T00:29:51.689Z,13.15
2023-01-19T00:32:55.177Z,13.12
2023-01-19T00:35:59.105Z,13.08
2023-01-19T00:39:03.117Z,13.18
2023-01-19T00:42:25.624Z,13.21
2023-01-19T00:45:29.120Z,12.97
2023-01-19T00:48:33.652Z,12.88
2023-01-19T00:51:37.667Z,13.02
2023-01-19T00:54:41.759Z,12.37
2023-01-19T00:57:46.860Z,12.35
2023-01-19T01:00:50.655Z,12.27
2023-01-19T01:03:54.367Z,11.99
2023-01-19T01:06:58.242Z,11.90
2023-01-19T01:10:01.832Z,11.89
2023-01-19T01:13:21.176Z,11.74
2023-01-19T01:16:27.896Z,11.87
2023-01-19T01:19:31.893Z,11.76
2023-01-19T01:22:35.421Z,11.84
2023-01-19T01:25:46.043Z,11.97
2023-01-19T01:28:51.875Z,11.97
2023-01-19T01:31:56.946Z,12.05
2023-01-19T01:35:00.674Z,11.86
2023-01-19T01:38:05.436Z,12.09
2023-01-19T01:41:10.623Z,12.24
2023-01-19T01:44:51.009Z,12.25
2023-01-19T01:47:58.667Z,12.27
2023-01-19T01:51:25.908Z,12.35
2023-01-19T01:54:33.160Z,12.41
2023-01-19T01:57:40.490Z,12.26
2023-01-19T02:01:03.612Z,12.19
2023-01-19T02:04:07.626Z,12.34
2023-01-19T02:07:31.329Z,12.29
2023-01-19T02:10:54.525Z,12.65
2023-01-19T02:13:59.585Z,12.92
2023-01-19T02:17:05.516Z,12.95
2023-01-19T02:20:10.857Z,12.91
2023-01-19T02:23:25.620Z,12.87
2023-01-19T02:26:35.211Z,12.95
2023-01-19T02:29:40.109Z,12.91
2023-01-19T02:32:44.452Z,12.91
2023-01-19T02:35:50.518Z,12.97
2023-01-19T02:38:57.251Z,13.07
2023-01-19T02:42:05.372Z,13.15
2023-01-19T02:45:12.878Z,13.26
2023-01-19T02:48:18.137Z,13.33
2023-01-19T02:51:25.697Z,13.43
2023-01-19T02:54:54.380Z,13.55
2023-01-19T02:58:08.039Z,13.54
2023-01-19T03:01:18.599Z,13.50
2023-01-19T03:04:30.038Z,13.50
2023-01-19T03:07:46.223Z,13.32
2023-01-19T03:10:57.920Z,13.49
2023-01-19T03:14:09.965Z,13.57
2023-01-19T03:17:16.239Z,13.63
2023-01-19T03:20:25.775Z,13.69
2023-01-19T03:23:33.632Z,13.50
2023-01-19T03:26:44.118Z,13.28
2023-01-19T03:29:55.207Z,13.02
2023-01-19T03:33:05.202Z,12.89
2023-01-19T03:36:15.172Z,12.63
2023-01-19T03:39:23.886Z,12.36
2023-01-19T03:42:29.542Z,12.46
2023-01-19T03:45:39.736Z,12.38
2023-01-19T03:48:44.007Z,12.55
2023-01-19T03:51:48.413Z,12.69
2023-01-19T03:54:51.877Z,12.63
2023-01-19T03:57:56.066Z,12.62
2023-01-19T04:01:01.025Z,12.51
2023-01-19T04:04:05.220Z,12.51
2023-01-19T04:07:11.220Z,12.45
2023-01-19T04:10:16.123Z,11.98
2023-01-19T04:13:19.648Z,12.02
2023-01-19T04:16:25.431Z,11.95
2023-01-19T04:19:29.063Z,11.96
2023-01-19T04:22:32.977Z,11.77
2023-01-19T04:25:38.927Z,11.75
2023-01-19T04:28:43.181Z,11.65
2023-01-19T04:31:48.256Z,11.87
2023-01-19T04:34:52.426Z,11.75
2023-01-19T04:37:56.040Z,11.73
2023-01-19T04:41:00.296Z,11.65
2023-01-19T04:44:04.066Z,11.78
2023-01-19T04:47:29.873Z,11.79
2023-01-19T04:50:34.774Z,11.50
2023-01-19T04:53:38.972Z,11.62
2023-01-19T04:56:42.697Z,11.41
2023-01-19T04:59:47.271Z,11.63
2023-01-19T05:02:52.554Z,11.79
2023-01-19T05:05:56.971Z,11.68
2023-01-19T05:09:00.542Z,11.75
2023-01-19T05:12:04.802Z,11.79
2023-01-19T05:15:09.836Z,11.66
2023-01-19T05:18:15.307Z,11.52
2023-01-19T05:21:19.291Z,11.62
2023-01-19T05:24:25.569Z,11.63
2023-01-19T05:27:29.541Z,11.77
2023-01-19T05:30:34.115Z,11.86
2023-01-19T05:33:39.183Z,12.16
2023-01-19T05:36:44.791Z,12.36
2023-01-19T05:39:48.343Z,12.18
2023-01-19T05:42:53.353Z,12.42
2023-01-19T05:45:57.100Z,12.59
2023-01-19T05:49:04.409Z,12.88
2023-01-19T05:52:08.222Z,12.78
2023-01-19T05:55:12.436Z,12.93
2023-01-19T05:58:16.115Z,13.02
2023-01-19T06:01:20.122Z,13.12
2023-01-19T06:04:25.581Z,13.08
2023-01-19T06:07:29.826Z,13.26
2023-01-19T06:10:33.648Z,13.08
2023-01-19T06:13:37.394Z,13.11
2023-01-19T06:16:41.137Z,13.11
2023-01-19T06:19:46.791Z,13.07
2023-01-19T06:22:50.487Z,13.17
2023-01-19T06:25:54.750Z,13.21
2023-01-19T06:28:58.302Z,13.16
2023-01-19T06:32:02.337Z,13.11
2023-01-19T06:35:08.439Z,12.88
2023-01-19T06:38:13.819Z,12.82
2023-01-19T06:41:17.540Z,12.89
2023-01-19T06:44:21.898Z,12.79
2023-01-19T06:47:25.917Z,12.22
2023-01-19T06:50:31.604Z,12.63
2023-01-19T06:53:35.198Z,12.30
2023-01-19T06:56:39.699Z,12.61
2023-01-19T06:59:44.627Z,12.71
2023-01-19T07:02:49.678Z,12.67
2023-01-19T07:05:56.914Z,12.78
2023-01-19T07:09:04.802Z,12.89
2023-01-19T07:12:09.514Z,12.86
2023-01-19T07:15:14.852Z,12.90
2023-01-19T07:18:18.548Z,12.76
2023-01-19T07:21:28.252Z,12.91
2023-01-19T07:24:33.721Z,12.77
2023-01-19T07:27:37.768Z,12.93
2023-01-19T07:30:41.583Z,12.93
2023-01-19T07:33:46.099Z,12.88
2023-01-19T07:36:51.077Z,12.95
2023-01-19T07:39:54.792Z,12.97
2023-01-19T07:42:58.972Z,13.02
2023-01-19T07:46:05.428Z,13.01
2023-01-19T07:49:09.557Z,13.11
2023-01-19T07:52:14.774Z,13.17
2023-01-19T07:55:18.548Z,13.28
2023-01-19T07:58:22.255Z,13.41
2023-01-19T08:01:25.813Z,13.35
2023-01-19T08:04:29.755Z,13.27
2023-01-19T08:07:35.717Z,13.08
2023-01-19T08:10:39.904Z,13.20
2023-01-19T08:13:45.183Z,13.30
2023-01-19T08:16:49.910Z,13.34
2023-01-19T08:19:54.561Z,13.47
2023-01-19T08:23:01.622Z,13.33
2023-01-19T08:26:19.658Z,13.35
2023-01-19T08:29:26.241Z,13.24
2023-01-19T08:32:30.133Z,13.38
2023-01-19T08:35:36.096Z,13.41
2023-01-19T08:38:44.769Z,13.21
2023-01-19T08:41:48.699Z,13.21
2023-01-19T08:44:58.191Z,13.11
2023-01-19T08:48:02.992Z,13.05
2023-01-19T08:51:06.910Z,13.00
2023-01-19T08:54:12.130Z,12.94
2023-01-19T08:57:16.280Z,12.83
2023-01-19T09:00:22.591Z,12.87
2023-01-19T09:03:26.488Z,12.81
2023-01-19T09:06:30.505Z,12.69
2023-01-19T09:09:37.945Z,12.81
2023-01-19T09:12:42.154Z,12.84
2023-01-19T09:15:46.536Z,12.87
2023-01-19T09:18:50.568Z,12.92
2023-01-19T09:21:55.388Z,12.97
2023-01-19T09:25:19.509Z,12.90
2023-01-19T09:28:23.565Z,12.82
2023-01-19T09:31:27.730Z,12.89
2023-01-19T09:34:31.521Z,13.04
2023-01-19T09:37:35.549Z,13.33
2023-01-19T09:40:45.234Z,13.45
2023-01-19T09:43:52.783Z,13.57
2023-01-19T09:46:56.242Z,13.64
2023-01-19T09:50:04.582Z,13.83
2023-01-19T09:53:17.612Z,13.95
2023-01-19T09:56:24.212Z,14.00
2023-01-19T09:59:30.904Z,13.96
2023-01-19T10:06:44.591Z,13.80
2023-01-19T10:10:10.456Z,13.62
2023-01-19T10:13:30.391Z,13.57
2023-01-19T10:16:45.473Z,13.70
2023-01-19T10:19:56.226Z,13.82
2023-01-19T10:23:02.240Z,13.89
2023-01-19T10:26:10.982Z,13.79
2023-01-19T10:29:23.240Z,13.82
2023-01-19T10:32:30.511Z,13.93
2023-01-19T10:35:35.840Z,13.77
2023-01-19T10:38:39.800Z,13.69
2023-01-19T10:41:46.725Z,13.87
2023-01-19T10:44:51.910Z,13.84
2023-01-19T10:47:58.761Z,13.90
2023-01-19T10:51:03.607Z,14.07
2023-01-19T10:54:14.318Z,13.97
2023-01-19T10:57:27.786Z,13.87
2023-01-19T11:00:40.275Z,14.05
2023-01-19T11:03:45.690Z,14.14
2023-01-19T11:06:50.049Z,14.12
2023-01-19T11:10:14.886Z,14.11
2023-01-19T11:13:18.986Z,14.02
2023-01-19T11:16:28.683Z,14.08
2023-01-19T11:19:34.522Z,14.11
2023-01-19T11:22:39.261Z,14.02
2023-01-19T11:25:47.797Z,14.15
2023-01-19T11:28:54.766Z,14.21
2023-01-19T11:32:12.970Z,14.08
2023-01-19T11:35:36.860Z,13.99
2023-01-19T11:38:44.952Z,13.91
2023-01-19T11:41:52.621Z,14.06
2023-01-19T11:45:12.782Z,14.15
2023-01-19T11:48:27.909Z,13.85
2023-01-19T11:51:39.038Z,14.04
2023-01-19T11:54:50.879Z,14.12
2023-01-19T11:57:56.480Z,14.24
2023-01-19T12:01:06.655Z,14.12
2023-01-19T12:04:17.394Z,14.08
2023-01-19T12:07:27.185Z,14.26
2023-01-19T12:10:36.326Z,14.46
2023-01-19T12:13:44.295Z,14.43
2023-01-19T12:16:49.279Z,14.53
2023-01-19T12:20:02.623Z,14.45
2023-01-19T12:23:25.007Z,14.63
2023-01-19T12:26:38.742Z,14.80
2023-01-19T12:29:43.997Z,14.71
2023-01-19T12:32:48.084Z,14.87
2023-01-19T12:35:59.974Z,14.84
2023-01-19T12:39:05.576Z,15.08
2023-01-19T12:42:15.935Z,15.23
2023-01-19T12:45:25.773Z,15.06
2023-01-19T12:48:33.207Z,15.12
2023-01-19T12:51:39.478Z,15.35
2023-01-19T12:54:51.894Z,15.37
2023-01-19T12:58:00.840Z,15.27
2023-01-19T13:01:16.702Z,15.26
2023-01-19T13:04:32.156Z,15.32
2023-01-19T13:08:09.454Z,15.37
2023-01-19T13:11:19.816Z,15.12
2023-01-19T13:14:43.128Z,15.16
2023-01-19T13:17:52.275Z,15.13
2023-01-19T13:21:01.705Z,15.27
2023-01-19T13:24:07.185Z,15.17
2023-01-19T13:27:14.341Z,15.23
2023-01-19T13:30:20.842Z,15.37
2023-01-19T13:33:27.995Z,15.58
2023-01-19T13:36:34.273Z,15.57
2023-01-19T13:39:41.518Z,15.52
2023-01-19T13:42:49.087Z,15.49
2023-01-19T13:45:53.716Z,15.63
2023-01-19T13:48:59.981Z,15.61
2023-01-19T13:52:15.094Z,15.58
2023-01-19T13:55:20.610Z,15.60
2023-01-19T13:58:28.058Z,15.55
2023-01-19T14:01:33.150Z,15.63
2023-01-19T14:04:37.269Z,15.47
2023-01-19T14:07:40.756Z,15.56
2023-01-19T14:10:48.450Z,15.25
2023-01-19T14:13:53.248Z,15.21
2023-01-19T14:16:59.543Z,15.30
2023-01-19T14:20:04.865Z,15.24
2023-01-19T14:23:39.002Z,15.19
2023-01-19T14:26:46.558Z,14.85
2023-01-19T14:29:54.950Z,14.53
2023-01-19T14:32:58.563Z,14.63
2023-01-19T14:36:11.198Z,14.53
2023-01-19T14:39:23.354Z,14.32
2023-01-19T14:42:31.438Z,14.14
2023-01-19T14:45:39.322Z,14.04
2023-01-19T14:48:48.289Z,13.90
2023-01-19T14:51:52.815Z,13.80
2023-01-19T14:54:58.787Z,13.99
2023-01-19T14:58:03.690Z,13.90
2023-01-19T15:01:10.268Z,13.98
2023-01-19T15:04:13.869Z,13.88
2023-01-19T15:07:21.115Z,13.83
2023-01-19T15:10:26.215Z,13.88
2023-01-19T15:13:30.383Z,13.74
2023-01-19T15:16:36.171Z,13.80
2023-01-19T15:19:40.729Z,14.00
2023-01-19T15:22:46.707Z,13.99
2023-01-19T15:25:51.664Z,13.98
2023-01-19T15:28:57.373Z,14.08
2023-01-19T15:32:03.944Z,14.21
2023-01-19T15:35:17.023Z,14.34
2023-01-19T15:38:21.047Z,14.41
2023-01-19T15:41:27.705Z,14.40
2023-01-19T15:44:34.120Z,14.39
2023-01-19T15:47:39.666Z,14.37
2023-01-19T15:50:45.047Z,14.50
2023-01-19T15:53:49.279Z,14.54
2023-01-19T15:56:53.276Z,14.57
2023-01-19T15:59:56.939Z,14.54
2023-01-19T16:03:03.972Z,14.63
2023-01-19T16:06:07.989Z,14.45
2023-01-19T16:09:16.765Z,14.56
2023-01-19T16:12:20.315Z,14.53
2023-01-19T16:15:25.527Z,14.19
2023-01-19T16:18:30.643Z,14.10
2023-01-19T16:21:34.388Z,14.05
2023-01-19T16:24:37.850Z,14.14
2023-01-19T16:27:41.553Z,13.95
2023-01-19T16:30:45.176Z,14.08
2023-01-19T16:33:50.589Z,13.87
2023-01-19T16:36:54.292Z,13.91
2023-01-19T16:39:58.295Z,13.90
2023-01-19T16:43:01.706Z,13.49
2023-01-19T16:46:05.719Z,13.28
2023-01-19T16:49:14.345Z,12.86
2023-01-19T16:52:19.328Z,12.64
2023-01-19T16:55:22.920Z,12.27
2023-01-19T16:58:27.316Z,12.13
2023-01-19T17:01:31.010Z,12.08
2023-01-19T17:04:37.378Z,11.89
2023-01-19T17:07:41.724Z,11.65
2023-01-19T17:10:45.765Z,11.62
2023-01-19T17:13:51.266Z,11.46
2023-01-19T17:16:55.099Z,11.18
2023-01-19T17:20:00.320Z,11.04
2023-01-19T17:23:04.158Z,10.77
2023-01-19T17:26:10.595Z,10.92
2023-01-19T17:29:14.620Z,10.96
2023-01-19T17:32:18.067Z,11.21
2023-01-19T17:35:23.358Z,11.35
2023-01-19T17:38:26.802Z,11.53
2023-01-19T17:41:32.179Z,11.35
2023-01-19T17:44:36.021Z,10.77
2023-01-19T17:47:40.265Z,10.96
2023-01-19T17:50:45.704Z,11.21
2023-01-19T17:53:49.857Z,11.20
2023-01-19T17:56:53.560Z,11.36
2023-01-19T18:00:15.248Z,11.31
2023-01-19T18:03:19.035Z,10.85
2023-01-19T18:06:24.505Z,11.18
2023-01-19T18:09:28.060Z,10.88
2023-01-19T18:12:32.170Z,10.82
2023-01-19T18:15:35.701Z,10.67
2023-01-19T18:18:40.569Z,10.65
2023-01-19T18:21:45.455Z,10.05
2023-01-19T18:24:49.300Z,10.57
2023-01-19T18:27:52.728Z,10.14
2023-01-19T18:30:56.772Z,10.75
2023-01-19T18:34:00.855Z,10.66
2023-01-19T18:37:06.103Z,10.92
2023-01-19T18:40:11.339Z,11.14
2023-01-19T18:43:15.321Z,11.24
2023-01-19T18:46:18.935Z,11.33
2023-01-19T18:49:22.689Z,11.29
2023-01-19T18:52:27.520Z,11.03
2023-01-19T18:55:31.256Z,11.33
2023-01-19T18:58:37.439Z,11.31
2023-01-19T19:01:42.191Z,11.14
2023-01-19T19:04:45.848Z,11.29
2023-01-19T19:07:52.268Z,11.09
2023-01-19T19:10:55.790Z,11.20
2023-01-19T19:14:02.068Z,11.19
2023-01-19T19:17:05.620Z,11.01
2023-01-19T19:20:10.980Z,11.22
2023-01-19T19:23:16.097Z,11.16
2023-01-19T19:26:20.718Z,10.77
2023-01-19T19:29:25.081Z,10.87
2023-01-19T19:32:31.036Z,10.57
2023-01-19T19:35:35.752Z,10.53
2023-01-19T19:38:42.934Z,10.47
2023-01-19T19:41:46.512Z,10.41
2023-01-19T19:44:52.415Z,10.80
2023-01-19T19:47:55.879Z,10.99
2023-01-19T19:51:17.590Z,11.21
2023-01-19T19:54:23.612Z,10.95
2023-01-19T19:57:27.707Z,10.93
2023-01-19T20:00:31.445Z,11.04
2023-01-19T20:03:37.860Z,10.45
2023-01-19T20:06:44.825Z,10.23
2023-01-19T20:09:51.168Z,10.20
2023-01-19T20:12:54.663Z,10.27
2023-01-19T20:15:58.396Z,10.32
2023-01-19T20:19:02.172Z,10.19
2023-01-19T20:22:06.048Z,9.90
2023-01-19T20:25:12.668Z,9.60
2023-01-19T20:28:16.883Z,9.87
2023-01-19T20:31:23.565Z,9.67
2023-01-19T20:34:32.069Z,9.58
2023-01-19T20:37:36.406Z,9.73
2023-01-19T20:40:41.897Z,9.55
2023-01-19T20:43:46.442Z,9.63
2023-01-19T20:46:51.597Z,9.41
2023-01-19T20:49:55.158Z,9.64
2023-01-19T20:52:58.832Z,9.58
2023-01-19T20:56:06.290Z,9.54
2023-01-19T20:59:10.564Z,8.43
2023-01-19T21:02:16.845Z,8.80
2023-01-19T21:05:21.566Z,8.53
2023-01-19T21:08:25.239Z,8.35
2023-01-19T21:11:30.475Z,8.65
2023-01-19T21:14:34.177Z,8.87
2023-01-19T21:17:38.056Z,8.70
2023-01-19T21:20:42.061Z,8.86
2023-01-19T21:23:46.962Z,8.67
2023-01-19T21:26:51.855Z,8.05
2023-01-19T21:29:55.689Z,8.26
2023-01-19T21:32:59.167Z,8.32
2023-01-19T21:36:03.470Z,8.42
2023-01-19T21:39:08.240Z,7.97
2023-01-19T21:42:14.102Z,8.26
2023-01-19T21:45:17.764Z,8.14
2023-01-19T21:48:21.869Z,8.22
2023-01-19T21:51:25.761Z,7.92
2023-01-19T21:54:29.706Z,8.15
2023-01-19T21:57:34.481Z,8.31
2023-01-19T22:00:38.220Z,8.32
2023-01-19T22:03:42.617Z,8.36
2023-01-19T22:06:46.909Z,8.41
2023-01-19T22:09:51.884Z,8.67
2023-01-19T22:12:57.439Z,8.83
2023-01-19T22:16:01.893Z,8.71
2023-01-19T22:19:07.835Z,8.71
2023-01-19T22:22:11.400Z,8.92
2023-01-19T22:25:15.769Z,8.78
2023-01-19T22:28:20.607Z,9.05
2023-01-19T22:31:25.652Z,9.13
2023-01-19T22:34:29.266Z,9.04
2023-01-19T22:37:36.265Z,8.99
2023-01-19T22:40:39.960Z,9.22
2023-01-19T22:43:47.367Z,9.02
2023-01-19T22:46:53.702Z,8.96
2023-01-19T22:49:57.660Z,8.86
2023-01-19T22:53:01.181Z,9.06
2023-01-19T22:56:12.939Z,8.99
2023-01-19T22:59:18.106Z,9.20
2023-01-19T23:02:21.976Z,8.91
2023-01-19T23:05:25.995Z,8.85
2023-01-19T23:08:30.103Z,9.09
2023-01-19T23:11:36.157Z,9.38
2023-01-19T23:14:41.595Z,9.41
2023-01-19T23:17:49.004Z,9.47
2023-01-19T23:20:52.921Z,9.45
2023-01-19T23:23:57.272Z,9.30
2023-01-19T23:27:02.414Z,9.33
2023-01-19T23:30:09.467Z,9.31
2023-01-19T23:33:13.396Z,9.34
2023-01-19T23:36:17.963Z,9.43
2023-01-19T23:39:23.401Z,9.56
2023-01-19T23:42:26.778Z,9.53
2023-01-19T23:45:32.804Z,9.47
2023-01-19T23:48:37.203Z,9.47
2023-01-19T23:51:42.747Z,9.42
2023-01-19T23:54:47.255Z,9.34
2023-01-19T23:57:51.143Z,9.51
